createdAt,value
2023-05-25T00:01:43.753Z,13.60
2023-05-25T00:04:10.943Z,10.57
2023-05-25T00:06:41.011Z,13.18
2023-05-25T00:09:07.873Z,12.90
2023-05-25T00:11:34.620Z,14.07
2023-05-25T00:14:01.328Z,12.80
2023-05-25T00:16:28.253Z,11.73
2023-05-25T00:18:57.396Z,13.15
2023-05-25T00:21:25.669Z,11.40
2023-05-25T00:23:52.497Z,12.32
2023-05-25T00:26:19.151Z,12.63
2023-05-25T00:28:45.916Z,12.73
2023-05-25T00:31:12.609Z,11.73
2023-05-25T00:33:39.564Z,13.07
2023-05-25T00:36:06.803Z,12.32
2023-05-25T00:38:33.451Z,11.63
2023-05-25T00:41:00.164Z,13.82
2023-05-25T00:43:26.885Z,11.88
2023-05-25T00:45:54.402Z,11.93
2023-05-25T00:48:21.439Z,11.93
2023-05-25T00:50:48.376Z,12.60
2023-05-25T00:53:15.096Z,11.68
2023-05-25T00:55:49.457Z,14.50
2023-05-25T00:58:20.475Z,11.10
2023-05-25T01:00:49.645Z,14.27
2023-05-25T01:03:21.836Z,14.85
2023-05-25T01:05:52.573Z,12.00
2023-05-25T01:08:21.830Z,12.10
2023-05-25T01:10:49.719Z,13.00
2023-05-25T01:13:18.073Z,12.38
2023-05-25T01:15:46.844Z,11.43
2023-05-25T01:18:15.251Z,11.00
2023-05-25T01:21:37.758Z,15.57
2023-05-25T01:24:13.364Z,11.60
2023-05-25T01:26:46.935Z,11.50
2023-05-25T01:29:15.753Z,14.73
2023-05-25T01:31:42.863Z,13.30
2023-05-25T01:34:11.090Z,14.60
2023-05-25T01:36:37.827Z,12.67
2023-05-25T01:39:06.213Z,13.57
2023-05-25T01:41:32.940Z,14.48
2023-05-25T01:43:59.779Z,12.43
2023-05-25T01:46:37.245Z,14.57
2023-05-25T01:49:38.873Z,16.47
2023-05-25T01:52:32.332Z,15.55
2023-05-25T01:55:18.601Z,12.90
2023-05-25T01:57:50.892Z,14.00
2023-05-25T02:00:21.277Z,14.77
2023-05-25T02:02:49.646Z,14.17
2023-05-25T02:05:18.341Z,16.15
2023-05-25T02:07:44.895Z,16.05
2023-05-25T02:10:11.548Z,16.17
2023-05-25T02:12:38.325Z,13.70
2023-05-25T02:15:05.890Z,17.77
2023-05-25T02:17:32.615Z,13.77
2023-05-25T02:20:05.219Z,15.25
2023-05-25T02:22:32.876Z,15.77
2023-05-25T02:24:59.699Z,16.55
2023-05-25T02:27:26.730Z,12.90
2023-05-25T02:29:53.688Z,17.27
2023-05-25T02:32:21.325Z,13.48
2023-05-25T02:34:48.170Z,12.88
2023-05-25T02:37:14.908Z,13.98
2023-05-25T02:39:41.545Z,17.53
2023-05-25T02:42:08.170Z,16.42
2023-05-25T02:44:35.253Z,15.20
2023-05-25T02:47:02.102Z,15.32
2023-05-25T02:49:29.921Z,16.08
2023-05-25T02:51:56.535Z,14.43
2023-05-25T02:54:23.515Z,16.15
2023-05-25T02:56:50.492Z,14.82
2023-05-25T02:59:17.151Z,15.23
2023-05-25T03:01:43.777Z,15.93
2023-05-25T03:04:12.003Z,12.70
2023-05-25T03:06:38.731Z,15.73
2023-05-25T03:09:06.217Z,14.35
2023-05-25T03:11:33.268Z,13.52
2023-05-25T03:13:59.915Z,15.40
2023-05-25T03:16:26.613Z,16.50
2023-05-25T03:18:53.341Z,19.30
2023-05-25T03:21:22.350Z,17.40
2023-05-25T03:23:49.239Z,14.82
2023-05-25T03:26:15.933Z,15.13
2023-05-25T03:28:42.590Z,18.50
2023-05-25T03:31:09.388Z,16.77
2023-05-25T03:33:36.079Z,17.27
2023-05-25T03:36:07.731Z,14.80
2023-05-25T03:38:35.068Z,13.65
2023-05-25T03:41:02.062Z,15.83
2023-05-25T03:43:28.707Z,12.82
2023-05-25T03:45:55.482Z,15.73
2023-05-25T03:48:22.161Z,14.75
2023-05-25T03:50:48.993Z,18.08
2023-05-25T03:53:16.414Z,13.77
2023-05-25T03:55:43.705Z,14.95
2023-05-25T03:58:10.595Z,14.13
2023-05-25T04:00:37.593Z,17.70
2023-05-25T04:03:04.422Z,17.63
2023-05-25T04:05:31.348Z,20.73
2023-05-25T04:07:58.087Z,20.60
2023-05-25T04:10:24.873Z,20.10
2023-05-25T04:12:51.958Z,19.90
2023-05-25T04:15:18.709Z,19.73
2023-05-25T04:17:45.665Z,16.67
2023-05-25T04:20:12.471Z,17.77
2023-05-25T04:22:40.512Z,19.15
2023-05-25T04:25:08.177Z,19.65
2023-05-25T04:27:34.766Z,14.98
2023-05-25T04:30:01.505Z,18.03
2023-05-25T04:32:29.914Z,16.27
2023-05-25T04:34:56.675Z,17.63
2023-05-25T04:37:27.349Z,19.02
2023-05-25T04:39:54.060Z,19.17
2023-05-25T04:42:23.900Z,16.33
2023-05-25T04:44:53.271Z,21.58
2023-05-25T04:47:20.022Z,17.88
2023-05-25T04:49:46.741Z,20.42
2023-05-25T04:52:13.694Z,18.10
2023-05-25T04:54:41.709Z,22.83
2023-05-25T04:57:08.434Z,18.92
2023-05-25T04:59:35.102Z,19.80
2023-05-25T05:02:01.769Z,18.65
2023-05-25T05:04:28.391Z,17.30
2023-05-25T05:06:57.375Z,19.70
2023-05-25T05:09:25.443Z,16.50
2023-05-25T05:11:52.111Z,18.08
2023-05-25T05:14:18.918Z,17.75
2023-05-25T05:16:45.656Z,18.08
2023-05-25T05:19:12.328Z,22.90
2023-05-25T05:21:39.165Z,20.33
2023-05-25T05:24:06.024Z,22.50
2023-05-25T05:26:41.297Z,19.65
2023-05-25T05:29:19.962Z,17.98
2023-05-25T05:31:46.709Z,19.23
2023-05-25T05:34:13.396Z,14.85
2023-05-25T05:36:53.088Z,18.98
2023-05-25T05:39:24.392Z,15.70
2023-05-25T05:41:51.264Z,16.30
2023-05-25T05:44:18.722Z,19.80
2023-05-25T05:46:45.485Z,16.83
2023-05-25T05:49:12.112Z,22.23
2023-05-25T05:51:38.674Z,18.52
2023-05-25T05:54:06.236Z,17.85
2023-05-25T05:56:32.871Z,17.73
2023-05-25T05:58:59.568Z,14.50
2023-05-25T06:01:26.381Z,17.38
2023-05-25T06:03:54.439Z,15.27
2023-05-25T06:06:21.641Z,16.17
2023-05-25T06:08:48.419Z,14.53
2023-05-25T06:11:15.039Z,15.60
2023-05-25T06:13:41.703Z,13.40
2023-05-25T06:16:08.370Z,15.63
2023-05-25T06:18:35.064Z,14.73
2023-05-25T06:21:02.131Z,11.87
2023-05-25T06:23:28.713Z,14.10
2023-05-25T06:25:55.586Z,14.95
2023-05-25T06:28:22.199Z,13.35
2023-05-25T06:30:48.993Z,11.50
2023-05-25T06:33:15.663Z,13.07
2023-05-25T06:35:42.801Z,15.32
2023-05-25T06:38:11.224Z,15.02
2023-05-25T06:40:37.978Z,13.35
2023-05-25T06:43:04.848Z,14.77
2023-05-25T06:45:31.573Z,11.60
2023-05-25T06:47:58.231Z,13.30
2023-05-25T06:50:24.844Z,14.95
2023-05-25T06:52:51.517Z,14.18
2023-05-25T06:55:18.086Z,13.15
2023-05-25T06:57:44.766Z,15.43
2023-05-25T07:00:12.305Z,13.75
2023-05-25T07:02:39.409Z,11.90
2023-05-25T07:05:06.454Z,14.30
2023-05-25T07:07:33.334Z,13.15
2023-05-25T07:10:00.124Z,15.10
2023-05-25T07:12:26.822Z,12.07
2023-05-25T07:14:53.485Z,13.35
2023-05-25T07:17:20.181Z,15.57
2023-05-25T07:19:48.639Z,12.13
2023-05-25T07:22:18.937Z,15.73
2023-05-25T07:24:46.832Z,14.30
2023-05-25T07:27:14.404Z,13.10
2023-05-25T07:29:41.240Z,16.48
2023-05-25T07:32:08.139Z,12.18
2023-05-25T07:34:35.177Z,12.47
2023-05-25T07:37:01.950Z,12.45
2023-05-25T07:39:28.648Z,11.80
2023-05-25T07:41:55.380Z,11.40
2023-05-25T07:44:22.034Z,10.27
2023-05-25T07:46:48.758Z,10.80
2023-05-25T07:49:18.323Z,10.90
2023-05-25T07:51:45.919Z,12.82
2023-05-25T07:54:12.750Z,11.45
2023-05-25T07:56:39.596Z,14.25
2023-05-25T07:59:06.508Z,12.13
2023-05-25T08:01:33.212Z,10.38
2023-05-25T08:04:00.746Z,12.55
2023-05-25T08:06:27.612Z,11.30
2023-05-25T08:08:54.365Z,9.50
2023-05-25T08:11:27.686Z,10.23
2023-05-25T08:13:54.486Z,12.32
2023-05-25T08:16:21.206Z,10.35
2023-05-25T08:18:47.944Z,11.00
2023-05-25T08:21:14.690Z,8.85
2023-05-25T08:23:42.741Z,9.23
2023-05-25T08:26:31.280Z,8.68
2023-05-25T08:28:59.100Z,11.60
2023-05-25T08:31:25.941Z,10.60
2023-05-25T08:33:52.582Z,9.38
2023-05-25T08:36:19.265Z,10.27
2023-05-25T08:38:45.979Z,9.23
2023-05-25T08:41:13.360Z,11.70
2023-05-25T08:43:42.104Z,10.35
2023-05-25T08:46:09.543Z,11.15
2023-05-25T08:48:42.370Z,8.37
2023-05-25T08:51:13.669Z,7.97
2023-05-25T08:53:41.455Z,10.02
2023-05-25T08:56:18.263Z,8.85
2023-05-25T08:59:18.042Z,16.15
2023-05-25T09:01:47.264Z,15.43
2023-05-25T09:04:14.569Z,12.77
2023-05-25T09:06:41.392Z,11.82
2023-05-25T09:09:09.415Z,10.10
2023-05-25T09:11:40.546Z,12.23
2023-05-25T09:14:09.076Z,10.47
2023-05-25T09:16:38.453Z,11.75
2023-05-25T09:19:05.754Z,9.25
2023-05-25T09:21:32.432Z,12.07
2023-05-25T09:24:00.549Z,10.60
2023-05-25T09:26:27.580Z,11.10
2023-05-25T09:28:54.420Z,11.13
2023-05-25T09:31:23.770Z,10.13
2023-05-25T09:33:55.378Z,11.15
2023-05-25T09:36:23.340Z,10.85
2023-05-25T09:38:53.729Z,10.73
2023-05-25T09:41:21.009Z,9.98
2023-05-25T09:43:58.145Z,10.43
2023-05-25T09:46:39.305Z,11.65
2023-05-25T09:49:08.852Z,10.68
2023-05-25T09:51:36.624Z,11.53
2023-05-25T09:54:10.182Z,10.68
2023-05-25T09:56:37.923Z,12.25
2023-05-25T09:59:05.711Z,10.55
2023-05-25T10:01:33.283Z,10.30
2023-05-25T10:04:04.711Z,10.50
2023-05-25T10:06:39.271Z,11.77
2023-05-25T10:09:08.878Z,10.25
2023-05-25T10:11:39.014Z,9.75
2023-05-25T10:14:07.496Z,10.40
2023-05-25T10:16:35.121Z,9.97
2023-05-25T10:19:09.919Z,10.27
2023-05-25T10:21:38.336Z,10.73
2023-05-25T10:24:09.796Z,9.75
2023-05-25T10:26:42.275Z,10.32
2023-05-25T10:29:09.778Z,10.00
2023-05-25T10:31:38.295Z,10.18
2023-05-25T10:34:05.026Z,9.02
2023-05-25T10:36:33.646Z,10.82
2023-05-25T10:39:03.251Z,8.80
2023-05-25T10:41:29.948Z,12.90
2023-05-25T10:43:56.652Z,9.15
2023-05-25T10:46:23.412Z,9.73
2023-05-25T10:48:51.777Z,10.18
2023-05-25T10:51:22.206Z,9.52
2023-05-25T10:54:01.468Z,9.47
2023-05-25T10:56:28.102Z,10.50
2023-05-25T10:58:54.972Z,10.32
2023-05-25T11:01:22.488Z,11.00
2023-05-25T11:03:58.176Z,11.38
2023-05-25T11:06:47.951Z,10.17
2023-05-25T11:09:33.789Z,10.48
2023-05-25T11:12:03.485Z,10.85
2023-05-25T11:14:31.661Z,9.70
2023-05-25T11:17:16.552Z,10.15
2023-05-25T11:19:50.636Z,11.43
2023-05-25T11:22:22.980Z,9.77
2023-05-25T11:24:52.412Z,9.95
2023-05-25T11:27:28.195Z,12.73
2023-05-25T11:29:58.550Z,13.75
2023-05-25T11:32:26.753Z,11.60
2023-05-25T11:34:54.358Z,10.40
2023-05-25T11:37:22.788Z,11.98
2023-05-25T11:39:51.564Z,11.05
2023-05-25T11:42:23.665Z,12.82
2023-05-25T11:44:51.278Z,10.93
2023-05-25T11:47:23.082Z,10.88
2023-05-25T11:49:50.150Z,12.20
2023-05-25T11:52:19.189Z,10.77
2023-05-25T11:54:46.581Z,12.07
2023-05-25T11:57:18.123Z,11.23
2023-05-25T11:59:55.580Z,11.38
2023-05-25T12:02:23.359Z,12.05
2023-05-25T12:04:57.078Z,10.43
2023-05-25T12:07:25.109Z,10.32
2023-05-25T12:09:52.771Z,11.53
2023-05-25T12:12:19.610Z,11.45
2023-05-25T12:14:50.356Z,12.20
2023-05-25T12:17:18.817Z,10.45
2023-05-25T12:19:45.854Z,11.05
2023-05-25T12:22:13.751Z,12.07
2023-05-25T12:24:41.032Z,12.07
2023-05-25T12:27:17.637Z,11.48
2023-05-25T12:29:48.124Z,11.93
2023-05-25T12:32:15.414Z,10.07
2023-05-25T12:34:42.244Z,10.50
2023-05-25T12:37:22.803Z,15.57
2023-05-25T12:39:51.268Z,12.88
2023-05-25T12:42:18.073Z,14.18
2023-05-25T12:44:46.497Z,11.82
2023-05-25T12:47:13.467Z,12.03
2023-05-25T12:49:42.988Z,11.73
2023-05-25T12:52:10.583Z,12.93
2023-05-25T12:54:45.258Z,15.63
2023-05-25T12:57:18.119Z,12.15
2023-05-25T12:59:46.751Z,13.60
2023-05-25T13:02:14.616Z,12.60
2023-05-25T13:04:42.161Z,13.77
2023-05-25T13:07:09.973Z,12.45
2023-05-25T13:09:37.392Z,13.35
2023-05-25T13:12:04.362Z,12.60
2023-05-25T13:14:31.104Z,10.93
2023-05-25T13:16:57.864Z,11.68
2023-05-25T13:19:26.023Z,11.85
2023-05-25T13:21:53.085Z,12.35
2023-05-25T13:24:19.802Z,11.87
2023-05-25T13:26:48.425Z,10.38
2023-05-25T13:29:17.501Z,12.38
2023-05-25T13:31:44.232Z,12.32
2023-05-25T13:34:11.084Z,11.95
2023-05-25T13:36:37.794Z,11.47
2023-05-25T13:39:05.367Z,12.20
2023-05-25T13:41:32.142Z,10.27
2023-05-25T13:43:58.924Z,10.30
2023-05-25T13:46:34.232Z,11.73
2023-05-25T13:49:02.462Z,10.13
2023-05-25T13:51:29.125Z,13.02
2023-05-25T13:53:55.855Z,11.10
2023-05-25T13:56:23.223Z,12.02
2023-05-25T13:58:49.919Z,10.00
2023-05-25T14:01:16.697Z,10.87
2023-05-25T14:03:43.579Z,10.40
2023-05-25T14:06:10.341Z,11.48
2023-05-25T14:08:36.997Z,11.52
2023-05-25T14:11:03.685Z,10.90
2023-05-25T14:13:30.454Z,11.40
2023-05-25T14:15:57.120Z,11.15
2023-05-25T14:18:24.343Z,12.68
2023-05-25T14:20:51.173Z,14.05
2023-05-25T14:23:19.369Z,11.65
2023-05-25T14:25:47.000Z,13.37
2023-05-25T14:28:14.662Z,11.23
2023-05-25T14:30:41.579Z,12.75
2023-05-25T14:33:08.453Z,10.98
2023-05-25T14:35:35.266Z,13.00
2023-05-25T14:38:01.832Z,13.30
2023-05-25T14:40:28.444Z,11.73
2023-05-25T14:42:55.867Z,12.98
2023-05-25T14:45:22.849Z,10.27
2023-05-25T14:47:50.703Z,10.18
2023-05-25T14:50:20.277Z,12.27
2023-05-25T14:52:47.000Z,10.75
2023-05-25T14:55:14.409Z,12.25
2023-05-25T14:57:41.049Z,12.85
2023-05-25T15:00:08.703Z,10.65
2023-05-25T15:02:35.609Z,11.50
2023-05-25T15:05:02.287Z,11.18
2023-05-25T15:07:28.995Z,12.02
2023-05-25T15:09:55.823Z,12.15
2023-05-25T15:12:22.440Z,13.70
2023-05-25T15:14:49.081Z,9.37
2023-05-25T15:17:15.657Z,13.40
2023-05-25T15:19:42.344Z,9.60
2023-05-25T15:22:09.038Z,10.98
2023-05-25T15:24:35.807Z,9.75
2023-05-25T15:27:04.943Z,11.43
2023-05-25T15:29:31.731Z,10.90
2023-05-25T15:31:58.654Z,11.23
2023-05-25T15:34:25.363Z,12.18
2023-05-25T15:36:51.960Z,10.57
2023-05-25T15:39:18.611Z,9.20
2023-05-25T15:41:45.314Z,10.40
2023-05-25T15:44:12.867Z,10.00
2023-05-25T15:46:41.031Z,8.93
2023-05-25T15:49:13.719Z,10.65
2023-05-25T15:51:44.522Z,7.53
2023-05-25T15:54:14.335Z,10.52
2023-05-25T15:56:41.591Z,9.55
2023-05-25T15:59:08.352Z,10.77
2023-05-25T16:01:36.822Z,12.05
2023-05-25T16:04:06.493Z,9.20
2023-05-25T16:06:33.184Z,10.30
2023-05-25T16:08:59.788Z,9.10
2023-05-25T16:11:28.293Z,9.65
2023-05-25T16:13:55.418Z,9.90
2023-05-25T16:16:22.344Z,11.60
2023-05-25T16:18:49.069Z,11.63
2023-05-25T16:21:15.810Z,9.95
2023-05-25T16:23:42.677Z,10.25
2023-05-25T16:26:10.136Z,11.45
2023-05-25T16:28:37.589Z,12.63
2023-05-25T16:31:07.434Z,10.60
2023-05-25T16:33:35.275Z,9.55
2023-05-25T16:36:01.971Z,10.55
2023-05-25T16:38:28.693Z,10.05
2023-05-25T16:40:55.528Z,11.33
2023-05-25T16:43:25.207Z,11.55
2023-05-25T16:45:51.981Z,10.20
2023-05-25T16:48:20.306Z,10.57
2023-05-25T16:50:48.335Z,11.60
2023-05-25T16:53:15.219Z,10.73
2023-05-25T16:55:41.864Z,11.20
2023-05-25T16:58:08.534Z,9.98
2023-05-25T17:00:35.269Z,11.27
2023-05-25T17:03:01.994Z,9.50
2023-05-25T17:05:28.713Z,10.83
2023-05-25T17:07:55.391Z,10.35
2023-05-25T17:10:22.064Z,10.85
2023-05-25T17:12:48.721Z,10.32
2023-05-25T17:15:16.243Z,8.65
2023-05-25T17:17:43.427Z,10.00
2023-05-25T17:20:11.385Z,9.85
2023-05-25T17:22:38.531Z,9.77
2023-05-25T17:25:09.181Z,10.05
2023-05-25T17:27:35.979Z,10.90
2023-05-25T17:30:02.694Z,8.27
2023-05-25T17:32:29.354Z,12.20
2023-05-25T17:34:56.160Z,9.98
2023-05-25T17:37:22.799Z,10.15
2023-05-25T17:39:49.362Z,9.88
2023-05-25T17:42:16.798Z,10.43
2023-05-25T17:44:43.424Z,10.75
2023-05-25T17:47:11.212Z,9.93
2023-05-25T17:49:38.209Z,10.15
2023-05-25T17:52:05.264Z,8.75
2023-05-25T17:54:31.925Z,12.10
2023-05-25T17:56:58.532Z,9.02
2023-05-25T17:59:25.171Z,10.10
2023-05-25T18:01:51.881Z,9.35
2023-05-25T18:04:19.457Z,8.38
2023-05-25T18:06:47.272Z,10.83
2023-05-25T18:09:14.023Z,11.68
2023-05-25T18:11:41.075Z,11.27
2023-05-25T18:14:07.873Z,9.82
2023-05-25T18:16:39.485Z,9.50
2023-05-25T18:19:07.350Z,10.20
2023-05-25T18:21:34.320Z,9.00
2023-05-25T18:24:00.941Z,8.40
2023-05-25T18:26:27.707Z,9.25
2023-05-25T18:28:54.413Z,8.52
2023-05-25T18:31:21.141Z,10.07
2023-05-25T18:33:47.894Z,9.25
2023-05-25T18:36:14.521Z,9.10
2023-05-25T18:38:41.117Z,12.63
2023-05-25T18:41:07.692Z,8.70
2023-05-25T18:43:34.318Z,11.40
2023-05-25T18:46:01.017Z,9.32
2023-05-25T18:48:27.738Z,10.52
2023-05-25T18:50:54.446Z,10.32
2023-05-25T18:53:21.563Z,10.60
2023-05-25T18:55:48.163Z,8.97
2023-05-25T18:58:14.834Z,10.02
2023-05-25T19:00:41.505Z,10.95
2023-05-25T19:03:08.182Z,10.52
2023-05-25T19:05:35.074Z,11.00
2023-05-25T19:08:01.696Z,10.10
2023-05-25T19:10:28.338Z,11.07
2023-05-25T19:12:55.176Z,11.13
2023-05-25T19:15:21.898Z,9.50
2023-05-25T19:17:48.756Z,10.50
2023-05-25T19:20:15.890Z,9.27
2023-05-25T19:22:43.368Z,11.23
2023-05-25T19:25:10.188Z,9.60
2023-05-25T19:27:36.847Z,10.45
2023-05-25T19:30:03.965Z,10.52
2023-05-25T19:32:30.750Z,12.60
2023-05-25T19:34:57.417Z,10.88
2023-05-25T19:37:24.033Z,11.30
2023-05-25T19:39:50.608Z,11.05
2023-05-25T19:42:17.264Z,11.75
2023-05-25T19:44:45.327Z,12.13
2023-05-25T19:47:12.277Z,12.52
2023-05-25T19:49:38.940Z,11.40
2023-05-25T19:52:05.747Z,10.48
2023-05-25T19:54:32.491Z,13.30
2023-05-25T19:56:59.256Z,11.87
2023-05-25T19:59:28.919Z,11.75
2023-05-25T20:01:56.729Z,12.25
2023-05-25T20:04:23.556Z,13.15
2023-05-25T20:06:50.741Z,11.52
2023-05-25T20:09:17.856Z,13.33
2023-05-25T20:11:44.551Z,15.20
2023-05-25T20:14:11.225Z,14.32
2023-05-25T20:16:37.851Z,15.52
2023-05-25T20:19:07.389Z,12.18
2023-05-25T20:21:34.566Z,11.43
2023-05-25T20:24:01.217Z,14.27
2023-05-25T20:26:28.135Z,12.88
2023-05-25T20:28:54.709Z,11.93
2023-05-25T20:31:21.571Z,17.70
2023-05-25T20:33:48.209Z,11.20
2023-05-25T20:36:15.831Z,13.98
2023-05-25T20:38:44.735Z,13.23
2023-05-25T20:41:11.615Z,12.75
2023-05-25T20:43:38.225Z,15.10
2023-05-25T20:46:07.138Z,10.80
2023-05-25T20:48:34.185Z,14.02
2023-05-25T20:51:00.855Z,14.10
2023-05-25T20:53:27.458Z,13.82
2023-05-25T20:55:54.070Z,14.30
2023-05-25T20:58:20.785Z,14.33
2023-05-25T21:00:47.426Z,12.88
2023-05-25T21:03:14.169Z,13.07
2023-05-25T21:05:41.059Z,11.45
2023-05-25T21:08:07.875Z,14.10
2023-05-25T21:10:34.500Z,11.07
2023-05-25T21:13:01.350Z,11.93
2023-05-25T21:15:27.913Z,11.88
2023-05-25T21:17:54.706Z,14.32
2023-05-25T21:20:21.642Z,12.80
2023-05-25T21:22:48.303Z,12.37
2023-05-25T21:25:15.063Z,14.48
2023-05-25T21:27:41.750Z,14.02
2023-05-25T21:30:08.683Z,10.23
2023-05-25T21:32:35.324Z,14.93
2023-05-25T21:35:01.961Z,17.23
2023-05-25T21:37:30.771Z,11.68
2023-05-25T21:39:57.461Z,14.00
2023-05-25T21:42:24.327Z,14.82
2023-05-25T21:44:51.118Z,12.48
2023-05-25T21:47:17.770Z,10.90
2023-05-25T21:49:44.752Z,14.88
2023-05-25T21:52:11.403Z,14.57
2023-05-25T21:54:38.071Z,14.18
2023-05-25T21:57:05.095Z,14.15
2023-05-25T21:59:31.707Z,16.53
2023-05-25T22:01:58.302Z,14.75
2023-05-25T22:04:25.158Z,17.08
2023-05-25T22:06:51.996Z,16.58
2023-05-25T22:09:18.628Z,15.95
2023-05-25T22:11:45.413Z,15.97
2023-05-25T22:14:12.178Z,19.23
2023-05-25T22:16:39.148Z,16.83
2023-05-25T22:19:05.730Z,19.67
2023-05-25T22:21:32.592Z,15.90
2023-05-25T22:23:59.444Z,15.33
2023-05-25T22:26:27.440Z,14.45
2023-05-25T22:28:54.061Z,14.00
2023-05-25T22:31:23.409Z,16.15
2023-05-25T22:33:50.066Z,13.85
2023-05-25T22:36:16.839Z,14.03
2023-05-25T22:38:43.533Z,14.20
2023-05-25T22:41:10.251Z,13.32
2023-05-25T22:43:36.911Z,15.45
2023-05-25T22:46:03.763Z,15.73
2023-05-25T22:48:30.999Z,13.03
2023-05-25T22:50:57.867Z,16.33
2023-05-25T22:53:24.446Z,17.05
2023-05-25T22:55:51.458Z,14.38
2023-05-25T22:58:18.326Z,14.88
2023-05-25T23:00:44.954Z,14.50
2023-05-25T23:03:11.711Z,16.73
2023-05-25T23:05:38.646Z,15.85
2023-05-25T23:08:06.040Z,15.90
2023-05-25T23:10:32.794Z,17.80
2023-05-25T23:12:59.558Z,13.47
2023-05-25T23:15:26.320Z,15.57
2023-05-25T23:17:53.186Z,14.90
2023-05-25T23:20:19.997Z,13.10
2023-05-25T23:22:46.811Z,16.98
2023-05-25T23:25:13.447Z,17.07
2023-05-25T23:27:40.455Z,16.13
2023-05-25T23:30:07.742Z,15.18
2023-05-25T23:32:36.160Z,16.48
2023-05-25T23:35:02.827Z,15.25
2023-05-25T23:37:29.542Z,17.60
2023-05-25T23:39:56.348Z,14.57
2023-05-25T23:42:23.156Z,17.48
2023-05-25T23:44:49.757Z,18.52
2023-05-25T23:47:17.247Z,17.60
2023-05-25T23:49:43.865Z,15.67
2023-05-25T23:52:10.629Z,18.85
2023-05-25T23:54:37.259Z,17.85
2023-05-25T23:57:04.225Z,21.42
2023-05-25T23:59:30.870Z,16.38
